Accueil
METAR-TAF:

METAR-TAF

Aéroports :

Base aérienne 702 Avord

Avord, France

latitude: 47-03-12N, longitude: 002-37-57E, altitude: 177 m

Observation

Le bulletin a été fait il y a 36 minutes, à 21:00 UTC
Vent 10 kt de est/nord-est
Température 3°C
Humidité 87%
Pression 1020 hPa
Visibilité 10 km ou plus
pas de nuages en-dessous de 1500 mètres et pas de cumulonimbus.

METAR: LFOA 172100Z AUTO 07010KT CAVOK 03/01 Q1020

Heure: 22:36 (21:36 UTC)

Prévision

Le bulletin a été fait il y a 13 heures et 36 minutes, à 08:00 UTC
Prévision valable du 17 à 09 UTC au 18 à 09 UTC
Vent 10 kt de est/nord-est
Visibilité: 8000 m
Ciel couvert à une hauteur de 700 ft
Evoluant progressivement
du 17 à 10 UTC au 17 à 12 UTC
Nuages fragmentés à une hauteur de 1400 ft
Evoluant progressivement
du 17 à 12 UTC au 17 à 14 UTC
Nuages épars à une hauteur de 2500 ft

TAF: LFOA 170800Z 1709/1809 06010KT 8000 OVC007 BECMG 1710/1712 BKN014 BECMG 1712/1714 SCT025

Observations et prévisions météorologiques de plus de 4000 aéroports (messages METAR et TAF).

Les stations disponibles sont représentées par des disques jaunes et rouges sur la carte.

Passer la souris dessus pour voir le nom de la station.

Cliquer dessus pour voir les observations et prévisions météorologiques.

Pour changer de carte: cliquez sur les boutons verts avec une croix noire pour zoomer, sur le bouton vert avec un tiret pour effectuer un zoom arrière, ou sur les flèches vertes pour les cartes adjacentes.


METAR-TAF: